Time;durP1;ratioP1;P1;durP2;ratioP2;P2;SDS_P1;SDS_P2;PMS_P1;PMS_P2;Temp;Humidity;BMP_temperature;BMP_pressure;BME280_temperature;BME280_humidity;BME280_pressure;Samples;Min_cycle;Max_cycle;Signal;HPM_P1;HPM_P2
2022/04/06 00:01:09;;;;;;;10.00;6.30;;;;;;;5.49;75.19;98325.70;213698;1278;142525;-65
2022/04/06 00:06:13;;;;;;;10.80;7.70;;;;;;;5.49;75.58;98334.32;213545;1277;140396;-67
2022/04/06 00:11:34;;;;;;;13.50;9.60;;;;;;;5.49;75.78;98335.23;213024;1278;140960;-68
2022/04/06 00:16:37;;;;;;;11.90;8.70;;;;;;;5.52;76.10;98331.69;213883;1277;139830;-66
2022/04/06 00:21:39;;;;;;;10.30;9.20;;;;;;;5.54;76.24;98321.10;214885;1277;139928;-67
2022/04/06 00:26:42;;;;;;;15.10;11.60;;;;;;;5.58;76.45;98318.38;213812;1277;141991;-67
2022/04/06 00:31:44;;;;;;;14.40;10.90;;;;;;;5.62;76.40;98314.34;214076;1279;141415;-70
2022/04/06 00:36:47;;;;;;;19.60;12.50;;;;;;;5.67;76.69;98309.20;213543;1278;143920;-67
2022/04/06 00:41:50;;;;;;;14.40;11.00;;;;;;;5.69;76.87;98304.38;213943;1278;163797;-67
2022/04/06 00:46:55;;;;;;;14.60;11.50;;;;;;;5.73;76.95;98304.35;215536;1277;140655;-71
2022/04/06 00:52:00;;;;;;;15.90;11.80;;;;;;;5.76;77.09;98302.22;215727;1277;140469;-73
2022/04/06 00:57:03;;;;;;;16.60;12.10;;;;;;;5.79;77.16;98299.46;215571;1277;140841;-71
2022/04/06 01:02:06;;;;;;;17.40;12.10;;;;;;;5.83;77.15;98288.98;215820;1277;140290;-72
2022/04/06 01:07:09;;;;;;;15.00;12.70;;;;;;;5.86;77.31;98297.77;215653;1277;141514;-72
2022/04/06 01:12:13;;;;;;;12.10;9.90;;;;;;;5.90;77.40;98297.34;215238;1277;140949;-68
2022/04/06 01:17:17;;;;;;;13.80;9.30;;;;;;;5.94;77.66;98296.73;214946;1279;140955;-70
2022/04/06 01:22:19;;;;;;;15.80;12.80;;;;;;;5.97;77.80;98301.81;214601;1277;140781;-66
2022/04/06 01:27:22;;;;;;;13.00;10.60;;;;;;;6.01;77.69;98303.24;214059;1277;140641;-64
2022/04/06 01:32:30;;;;;;;15.40;12.40;;;;;;;6.03;78.16;98300.27;213158;1277;140267;-66
2022/04/06 01:37:34;;;;;;;12.70;9.70;;;;;;;6.03;78.34;98293.08;214235;1276;141052;-68
2022/04/06 01:42:37;;;;;;;14.80;11.10;;;;;;;6.04;78.50;98295.31;213736;1277;162042;-65
2022/04/06 01:47:40;;;;;;;12.60;9.90;;;;;;;6.07;78.64;98301.52;213048;1275;140403;-65
2022/04/06 01:52:43;;;;;;;12.00;8.80;;;;;;;6.10;78.66;98301.33;214418;1277;140981;-66
2022/04/06 01:57:47;;;;;;;9.80;7.50;;;;;;;6.11;78.88;98301.20;213539;1277;140706;-66
2022/04/06 02:02:51;;;;;;;14.00;10.40;;;;;;;6.13;78.76;98308.02;213596;1277;140703;-65
2022/04/06 02:07:54;;;;;;;10.20;7.40;;;;;;;6.15;78.96;98312.61;213373;1279;140961;-66
2022/04/06 02:12:58;;;;;;;10.20;8.70;;;;;;;6.15;79.20;98321.23;213978;1277;140895;-68
2022/04/06 02:18:01;;;;;;;10.90;7.30;;;;;;;6.19;79.19;98323.95;213593;1277;140296;-65
2022/04/06 02:23:06;;;;;;;9.40;8.00;;;;;;;6.23;79.12;98322.63;213661;1277;143022;-65
2022/04/06 02:28:09;;;;;;;8.60;6.70;;;;;;;6.27;78.91;98324.34;213800;1277;142414;-67
2022/04/06 02:33:11;;;;;;;12.80;9.10;;;;;;;6.29;79.09;98325.13;214344;1277;142783;-64
2022/04/06 02:38:15;;;;;;;9.70;8.70;;;;;;;6.30;79.28;98334.83;214141;1277;141450;-63
2022/04/06 02:43:17;;;;;;;12.70;9.50;;;;;;;6.31;79.41;98341.05;213534;1279;143588;-62
2022/04/06 02:48:19;;;;;;;11.60;8.00;;;;;;;6.33;79.61;98340.23;213459;1279;140331;-64
2022/04/06 02:53:25;;;;;;;13.10;9.40;;;;;;;6.34;79.68;98339.60;214647;1279;140351;-65
2022/04/06 02:58:28;;;;;;;6.30;5.70;;;;;;;6.36;79.66;98340.27;213895;1277;141348;-66
2022/04/06 03:03:30;;;;;;;12.00;10.60;;;;;;;6.38;79.53;98344.38;214910;1277;142481;-65
2022/04/06 03:08:33;;;;;;;9.30;7.80;;;;;;;6.39;79.55;98348.59;215510;1277;141947;-65
2022/04/06 03:13:35;;;;;;;11.90;8.90;;;;;;;6.44;79.54;98351.64;215171;1278;140155;-66
2022/04/06 03:18:38;;;;;;;9.70;7.50;;;;;;;6.49;79.53;98355.38;215453;1277;140072;-66
2022/04/06 03:23:42;;;;;;;10.50;8.20;;;;;;;6.53;79.78;98352.43;214743;1277;141464;-66
2022/04/06 03:28:45;;;;;;;9.50;7.80;;;;;;;6.56;79.66;98357.70;214156;1277;141802;-67
2022/04/06 03:33:48;;;;;;;9.80;8.30;;;;;;;6.57;79.95;98355.45;214174;1277;142209;-68
2022/04/06 03:38:51;;;;;;;10.60;7.40;;;;;;;6.57;79.73;98357.14;213568;1277;140804;-70
2022/04/06 03:43:54;;;;;;;9.20;7.00;;;;;;;6.60;79.55;98371.39;213894;1277;142168;-65
2022/04/06 03:48:56;;;;;;;8.20;7.40;;;;;;;6.60;79.93;98376.37;213197;1279;141753;-66
2022/04/06 03:54:00;;;;;;;9.10;6.60;;;;;;;6.60;79.85;98370.53;213562;1277;141101;-68
2022/04/06 03:59:04;;;;;;;6.80;6.10;;;;;;;6.59;80.09;98366.02;214127;1277;141110;-69
2022/04/06 04:04:10;;;;;;;7.90;6.30;;;;;;;6.59;80.20;98365.29;213124;1277;141848;-71
2022/04/06 04:09:13;;;;;;;10.00;7.40;;;;;;;6.60;80.51;98367.36;213313;1279;140548;-65
2022/04/06 04:14:15;;;;;;;7.60;6.90;;;;;;;6.61;80.20;98375.02;213062;1277;141545;-67
2022/04/06 04:19:19;;;;;;;8.10;6.90;;;;;;;6.61;80.58;98373.21;213599;1277;140867;-67
2022/04/06 04:24:21;;;;;;;9.00;7.60;;;;;;;6.61;80.51;98380.62;214764;1277;150815;-68
2022/04/06 04:29:25;;;;;;;8.80;7.40;;;;;;;6.63;80.45;98376.67;213317;1279;140447;-63
2022/04/06 04:34:28;;;;;;;9.20;8.30;;;;;;;6.66;80.82;98373.44;212988;1279;140322;-69
2022/04/06 04:39:31;;;;;;;9.50;6.80;;;;;;;6.68;80.41;98370.73;213958;1276;142807;-65
2022/04/06 04:44:34;;;;;;;11.60;9.50;;;;;;;6.70;80.88;98370.59;214674;1276;141844;-67
2022/04/06 04:49:36;;;;;;;8.50;7.10;;;;;;;6.73;80.79;98371.30;214383;1276;141404;-67
2022/04/06 04:54:39;;;;;;;14.70;10.00;;;;;;;6.78;81.00;98372.54;214358;1277;141260;-66
2022/04/06 04:59:42;;;;;;;9.70;8.70;;;;;;;6.83;81.10;98375.30;214019;1277;142523;-68
2022/04/06 05:04:44;;;;;;;11.20;9.10;;;;;;;6.88;80.79;98376.92;215488;1277;139798;-68
2022/04/06 05:09:47;;;;;;;13.10;10.70;;;;;;;6.92;80.92;98377.41;215267;1279;141568;-68
2022/04/06 05:14:49;;;;;;;12.80;11.40;;;;;;;7.00;80.65;98380.08;215765;1277;141369;-70
2022/04/06 05:19:53;;;;;;;9.20;7.60;;;;;;;7.07;80.96;98378.23;214837;1277;141818;-68
2022/04/06 05:24:56;;;;;;;12.30;10.80;;;;;;;7.06;80.59;98383.58;215529;1277;141679;-68
2022/04/06 05:30:02;;;;;;;13.20;9.60;;;;;;;7.08;80.99;98385.58;213433;1277;143198;-67
2022/04/06 05:35:06;;;;;;;12.40;10.80;;;;;;;7.13;81.00;98385.06;214145;1277;140408;-66
2022/04/06 05:40:12;;;;;;;12.30;10.70;;;;;;;7.16;81.36;98387.64;213917;1277;142657;-67
2022/04/06 05:45:16;;;;;;;14.70;12.60;;;;;;;7.22;81.31;98389.15;213367;1277;141151;-67
2022/04/06 05:50:19;;;;;;;15.40;12.70;;;;;;;7.27;81.70;98393.20;213775;1277;142180;-68
2022/04/06 05:55:22;;;;;;;11.70;10.50;;;;;;;7.34;81.94;98389.40;214421;1277;141586;-69
2022/04/06 06:00:24;;;;;;;13.70;11.60;;;;;;;7.40;81.58;98389.79;214587;1277;141158;-68
2022/04/06 06:05:27;;;;;;;14.40;11.90;;;;;;;7.44;81.66;98391.38;213189;1277;143757;-68
2022/04/06 06:10:29;;;;;;;12.60;10.90;;;;;;;7.49;81.59;98394.46;213399;1277;141665;-68
2022/04/06 06:15:31;;;;;;;15.40;11.70;;;;;;;7.52;81.77;98388.88;213271;1277;141480;-67
2022/04/06 06:20:34;;;;;;;14.40;10.70;;;;;;;7.56;81.93;98389.46;213265;1279;142602;-70
2022/04/06 06:25:38;;;;;;;11.60;9.70;;;;;;;7.60;81.59;98390.89;213137;1279;141969;-67
2022/04/06 06:30:40;;;;;;;13.20;11.00;;;;;;;7.64;82.11;98397.70;213377;1276;141380;-69
2022/04/06 06:35:45;;;;;;;16.00;11.30;;;;;;;7.70;81.98;98395.50;213682;1277;141375;-68
2022/04/06 06:40:48;;;;;;;15.80;12.70;;;;;;;7.77;81.97;98399.81;214084;1277;140324;-67
2022/04/06 06:45:51;;;;;;;14.70;11.20;;;;;;;7.85;81.83;98399.43;214301;1277;142029;-71
2022/04/06 06:50:54;;;;;;;12.70;11.20;;;;;;;7.89;81.69;98398.90;213788;1279;140970;-71
2022/04/06 06:55:56;;;;;;;13.30;10.00;;;;;;;8.03;81.67;98405.66;214424;1277;140381;-67
2022/04/06 07:01:01;;;;;;;10.40;9.30;;;;;;;8.23;82.01;98395.45;214141;1277;141146;-67
2022/04/06 07:06:04;;;;;;;10.60;9.40;;;;;;;8.30;82.15;98409.42;215030;1277;142028;-68
2022/04/06 07:11:08;;;;;;;13.20;10.40;;;;;;;8.32;81.83;98416.36;215621;1277;140295;-71
2022/04/06 07:16:11;;;;;;;8.90;7.90;;;;;;;8.43;81.79;98418.66;215500;1277;139930;-69
2022/04/06 07:21:14;;;;;;;7.60;6.60;;;;;;;8.54;81.93;98422.20;213794;1277;140565;-67
2022/04/06 07:26:17;;;;;;;9.10;8.00;;;;;;;8.71;81.84;98423.71;215268;1277;141769;-67
2022/04/06 07:31:19;;;;;;;9.30;8.00;;;;;;;8.87;81.76;98426.42;215406;1277;141413;-68
2022/04/06 07:36:22;;;;;;;7.50;6.80;;;;;;;9.00;81.29;98424.65;214387;1277;142298;-69
2022/04/06 07:41:25;;;;;;;7.30;6.40;;;;;;;9.09;81.12;98433.17;214413;1277;140418;-70
2022/04/06 07:46:27;;;;;;;8.00;7.20;;;;;;;9.22;81.20;98434.40;213428;1277;140506;-69
2022/04/06 07:51:30;;;;;;;6.70;6.10;;;;;;;9.34;81.18;98437.45;213995;1277;141378;-68
2022/04/06 07:56:32;;;;;;;6.00;5.10;;;;;;;9.44;81.04;98441.66;213494;1277;141198;-69
2022/04/06 08:01:38;;;;;;;7.60;6.40;;;;;;;9.71;81.18;98444.86;214486;1277;141205;-69
2022/04/06 08:06:41;;;;;;;8.10;7.40;;;;;;;9.83;80.87;98446.55;213411;1279;140889;-65
2022/04/06 08:11:43;;;;;;;9.40;7.80;;;;;;;9.94;80.59;98437.44;213089;1275;140962;-68
2022/04/06 08:16:47;;;;;;;7.90;6.90;;;;;;;10.12;80.48;98438.92;213824;1277;139990;-68
2022/04/06 08:21:50;;;;;;;8.40;6.50;;;;;;;10.39;80.35;98437.86;212862;1277;140321;-66
2022/04/06 08:26:53;;;;;;;6.20;5.60;;;;;;;10.59;80.06;98443.11;213620;1277;141136;-67
2022/04/06 08:31:55;;;;;;;8.70;7.80;;;;;;;10.73;79.83;98454.30;214468;1277;142289;-69
2022/04/06 08:36:57;;;;;;;8.90;8.00;;;;;;;10.67;79.43;98458.35;213354;1277;141691;-72
2022/04/06 08:42:00;;;;;;;8.60;7.80;;;;;;;10.48;79.20;98459.93;213245;1277;141911;-70
2022/04/06 08:47:20;;;;;;;8.10;7.30;;;;;;;10.30;79.09;98465.30;214457;1277;140869;-67
2022/04/06 08:52:23;;;;;;;8.80;8.00;;;;;;;10.11;78.96;98467.73;213635;1277;141862;-66
2022/04/06 08:57:46;;;;;;;9.20;8.00;;;;;;;9.98;79.29;98468.33;213849;1277;151643;-68
2022/04/06 09:02:49;;;;;;;8.80;7.90;;;;;;;9.98;79.27;98468.33;213824;1277;141579;-69
2022/04/06 09:07:51;;;;;;;14.40;10.20;;;;;;;10.03;79.54;98469.20;212537;1279;143252;-69
2022/04/06 09:13:10;;;;;;;9.10;8.00;;;;;;;10.14;79.44;98472.88;212396;1277;141140;-66
2022/04/06 09:18:14;;;;;;;9.60;8.40;;;;;;;10.15;79.40;98475.23;215452;1277;140916;-67
2022/04/06 09:23:21;;;;;;;10.60;8.60;;;;;;;10.32;79.65;98481.61;215272;1279;140984;-66
2022/04/06 09:28:25;;;;;;;;;;;;;;;10.47;79.32;98481.98;215281;1279;140729;-68
2022/04/06 09:33:29;;;;;;;9.70;8.20;;;;;;;10.60;79.06;98479.35;213438;1279;127407;-67
2022/04/06 09:38:32;;;;;;;10.40;8.40;;;;;;;10.99;79.07;98478.81;214072;1277;141268;-68
2022/04/06 09:43:45;;;;;;;7.50;6.70;;;;;;;11.43;78.59;98477.15;213904;1277;141689;-66
2022/04/06 09:48:53;;;;;;;4.10;3.70;;;;;;;11.69;78.02;98483.27;214406;1277;141770;-69
2022/04/06 09:53:55;;;;;;;3.20;3.00;;;;;;;11.45;76.84;98483.02;213381;1278;141468;-68
2022/04/06 09:58:59;;;;;;;2.80;2.60;;;;;;;10.95;76.24;98488.58;213711;1279;141583;-67
2022/04/06 10:04:12;;;;;;;4.80;4.00;;;;;;;10.47;76.45;98494.31;213723;1277;141900;-68
2022/04/06 10:09:15;;;;;;;2.00;1.70;;;;;;;10.12;76.80;98486.31;213244;1277;141089;-68
2022/04/06 10:14:18;;;;;;;1.90;1.70;;;;;;;9.86;77.02;98476.42;213600;1277;573330;-68
2022/04/06 10:19:25;;;;;;;4.70;2.30;;;;;;;9.71;77.44;98478.71;212987;1278;140739;-67
2022/04/06 10:24:55;;;;;;;2.20;2.10;;;;;;;9.73;77.86;98478.98;212765;1279;140225;-69
2022/04/06 10:30:09;;;;;;;4.30;3.30;;;;;;;10.01;78.69;98476.42;213020;1277;140019;-66
2022/04/06 10:35:34;;;;;;;9.50;5.60;;;;;;;10.37;78.64;98473.56;212931;1277;141042;-67
2022/04/06 10:40:42;;;;;;;7.80;6.90;;;;;;;10.70;78.97;98463.79;213382;1277;141479;-68
2022/04/06 10:45:44;;;;;;;7.30;6.20;;;;;;;11.04;78.77;98468.73;213924;1277;140716;-69
2022/04/06 10:50:48;;;;;;;6.70;6.00;;;;;;;11.27;78.26;98469.34;214034;1277;140589;-69
2022/04/06 10:56:16;;;;;;;5.30;4.80;;;;;;;11.41;77.76;98470.11;214587;1279;140174;-69
2022/04/06 11:01:18;;;;;;;5.30;4.70;;;;;;;11.52;77.21;98469.88;213037;1277;142607;-67
2022/04/06 11:06:44;;;;;;;5.60;5.00;;;;;;;11.56;76.83;98475.15;213840;1279;141869;-68
2022/04/06 11:11:47;;;;;;;5.50;4.90;;;;;;;11.54;76.45;98483.80;213310;1278;141425;-68
2022/04/06 11:16:49;;;;;;;6.20;5.10;;;;;;;11.49;76.29;98477.41;215468;1278;140638;-70
2022/04/06 11:21:53;;;;;;;9.80;5.80;;;;;;;11.68;76.40;98479.91;215406;1277;141436;-70
2022/04/06 11:26:55;;;;;;;12.10;5.70;;;;;;;12.12;76.01;98476.27;214724;1277;140982;-69
2022/04/06 11:31:59;;;;;;;6.30;4.70;;;;;;;12.42;75.32;98477.23;215296;1279;141278;-69
2022/04/06 11:37:03;;;;;;;7.20;5.10;;;;;;;12.63;74.87;98479.65;214017;1277;141463;-69
2022/04/06 11:42:06;;;;;;;5.30;4.70;;;;;;;12.72;74.13;98481.35;213899;1278;140182;-69
2022/04/06 11:47:08;;;;;;;6.20;5.00;;;;;;;12.82;74.32;98478.23;213896;1277;141012;-69
2022/04/06 11:52:10;;;;;;;5.80;4.90;;;;;;;12.95;73.87;98472.28;214195;1277;140586;-69
2022/04/06 11:57:13;;;;;;;7.50;5.60;;;;;;;13.09;73.54;98466.61;213144;1278;140219;-68
2022/04/06 12:02:15;;;;;;;7.90;6.10;;;;;;;13.23;73.28;98470.61;214166;1278;141133;-69
2022/04/06 12:07:22;;;;;;;6.60;5.10;;;;;;;13.24;72.86;98466.27;213520;1278;140239;-69
2022/04/06 12:12:24;;;;;;;7.90;5.70;;;;;;;13.30;72.64;98460.71;213046;1277;159363;-69
2022/04/06 12:17:28;;;;;;;8.50;6.30;;;;;;;13.44;72.48;98456.98;213392;1277;141157;-68
2022/04/06 12:22:31;;;;;;;7.10;6.40;;;;;;;13.53;72.59;98457.94;213195;1277;142339;-67
2022/04/06 12:27:33;;;;;;;6.20;5.60;;;;;;;13.61;72.43;98456.40;213097;1277;140471;-68
2022/04/06 12:32:43;;;;;;;6.60;5.30;;;;;;;13.50;71.91;98454.80;213633;1278;140895;-69
2022/04/06 12:37:46;;;;;;;7.00;5.60;;;;;;;13.38;71.72;98446.33;212878;1279;140192;-69
2022/04/06 12:42:50;;;;;;;6.60;5.50;;;;;;;13.29;71.82;98441.02;213069;1279;140678;-68
2022/04/06 12:48:15;;;;;;;10.70;7.50;;;;;;;13.23;71.61;98437.59;214370;1277;142527;-68
2022/04/06 12:53:49;;;;;;;7.90;6.80;;;;;;;13.24;71.90;98437.31;212938;1277;142220;-70
2022/04/06 12:59:11;;;;;;;9.50;6.50;;;;;;;13.19;71.59;98428.69;214208;1278;140788;-68
2022/04/06 13:04:14;;;;;;;9.30;7.20;;;;;;;13.10;71.48;98429.84;213527;1277;140556;-68
2022/04/06 13:09:17;;;;;;;8.60;5.80;;;;;;;13.03;71.22;98431.98;212978;1279;141071;-70
2022/04/06 13:14:26;;;;;;;6.30;5.00;;;;;;;12.96;70.69;98429.43;213630;1277;140873;-67
2022/04/06 13:19:29;;;;;;;5.90;4.90;;;;;;;13.01;70.87;98429.81;212911;1279;140369;-68
2022/04/06 13:24:33;;;;;;;6.60;4.40;;;;;;;13.14;70.46;98423.21;214068;1277;139966;-69
2022/04/06 13:29:35;;;;;;;8.20;4.40;;;;;;;13.21;70.05;98426.52;215689;1277;140669;-69
2022/04/06 13:34:37;;;;;;;5.50;5.00;;;;;;;13.19;69.56;98429.06;215474;1277;140108;-70
2022/04/06 13:39:40;;;;;;;6.30;4.90;;;;;;;13.02;68.93;98429.80;215458;1278;141204;-69
2022/04/06 13:44:51;;;;;;;5.90;5.20;;;;;;;12.86;68.91;98423.16;212711;1279;139951;-68
2022/04/06 13:49:52;;;;;;;5.40;4.90;;;;;;;12.87;69.42;98414.75;214605;1278;141051;-68
2022/04/06 13:54:56;;;;;;;6.70;5.90;;;;;;;12.98;69.22;98406.73;214938;1278;141497;-70
2022/04/06 13:59:59;;;;;;;9.10;5.10;;;;;;;13.13;69.53;98409.27;214427;1277;140378;-69
2022/04/06 14:05:03;;;;;;;5.90;5.40;;;;;;;13.20;69.15;98414.02;212943;1279;140217;-67
2022/04/06 14:10:06;;;;;;;5.50;4.90;;;;;;;13.15;68.86;98409.24;215070;1276;140981;-68
2022/04/06 14:15:09;;;;;;;6.70;5.60;;;;;;;13.07;68.42;98398.08;212977;1277;141029;-67
2022/04/06 14:20:12;;;;;;;6.60;4.40;;;;;;;13.01;68.55;98396.32;214148;1277;139982;-68
2022/04/06 14:25:15;;;;;;;6.20;4.60;;;;;;;12.98;68.34;98394.10;214077;1278;140381;-68
2022/04/06 14:30:19;;;;;;;8.50;5.40;;;;;;;13.01;68.78;98386.70;213397;1277;140642;-67
2022/04/06 14:35:23;;;;;;;5.30;4.80;;;;;;;13.06;68.22;98385.69;213116;1279;143237;-68
2022/04/06 14:40:25;;;;;;;10.20;6.20;;;;;;;13.02;67.90;98381.39;212847;1277;143695;-66
2022/04/06 14:45:29;;;;;;;6.40;5.20;;;;;;;12.99;67.98;98375.46;213329;1278;140939;-68
2022/04/06 14:50:33;;;;;;;6.50;5.90;;;;;;;12.96;67.73;98368.77;213577;1278;141853;-68
2022/04/06 14:55:36;;;;;;;8.60;5.10;;;;;;;12.96;67.86;98365.87;213819;1279;141246;-68
2022/04/06 15:00:44;;;;;;;7.90;5.30;;;;;;;12.98;67.41;98366.55;214156;1277;139655;-68
2022/04/06 15:05:48;;;;;;;5.40;4.50;;;;;;;12.99;67.17;98365.73;213637;1278;142142;-68
2022/04/06 15:10:52;;;;;;;5.70;4.80;;;;;;;12.98;66.87;98363.55;214078;1277;140754;-68
2022/04/06 15:15:56;;;;;;;6.40;5.00;;;;;;;12.95;67.10;98358.60;214866;1277;139620;-67
2022/04/06 15:21:00;;;;;;;7.50;5.50;;;;;;;12.89;66.91;98356.79;215507;1277;141853;-68
2022/04/06 15:26:03;;;;;;;5.20;4.80;;;;;;;12.90;67.12;98355.77;215392;1277;152203;-67
2022/04/06 15:31:07;;;;;;;6.00;4.70;;;;;;;12.93;66.98;98354.41;215542;1279;140259;-68
2022/04/06 15:41:34;;;;;;;7.80;5.90;;;;;;;12.97;67.11;98345.16;215583;1277;140602;-68
2022/04/06 15:46:39;;;;;;;7.70;5.00;;;;;;;12.95;67.09;98347.52;215142;1277;140157;-68
2022/04/06 15:51:42;;;;;;;5.20;4.50;;;;;;;12.88;67.17;98343.59;214026;1277;140498;-69
2022/04/06 15:56:44;;;;;;;7.70;5.60;;;;;;;12.84;66.92;98339.40;214665;1277;209647;-68
2022/04/06 16:01:46;;;;;;;6.30;5.40;;;;;;;12.78;66.94;98335.15;214725;1277;140260;-69
2022/04/06 16:06:49;;;;;;;7.70;5.70;;;;;;;12.75;66.88;98332.77;214764;1278;141405;-68
2022/04/06 16:11:54;;;;;;;5.90;4.80;;;;;;;12.74;67.20;98328.71;212984;1281;142506;-67
2022/04/06 16:16:59;;;;;;;7.30;5.60;;;;;;;12.73;67.03;98322.26;213218;1277;141210;-67
2022/04/06 16:22:01;;;;;;;5.70;5.10;;;;;;;12.71;66.86;98313.52;214500;1277;141182;-68
2022/04/06 16:27:03;;;;;;;4.00;3.50;;;;;;;12.65;67.02;98312.71;213276;1280;140277;-68
2022/04/06 16:32:07;;;;;;;4.70;4.30;;;;;;;12.53;66.65;98307.05;214711;1281;141603;-68
2022/04/06 16:37:10;;;;;;;6.20;5.30;;;;;;;12.40;66.76;98308.67;213630;1277;143712;-68
2022/04/06 16:42:12;;;;;;;4.50;4.20;;;;;;;12.31;66.81;98311.04;213390;1277;141937;-68
2022/04/06 16:47:16;;;;;;;5.50;3.50;;;;;;;12.23;66.69;98310.26;213088;1277;143219;-69
2022/04/06 16:52:43;;;;;;;6.40;3.60;;;;;;;12.11;66.78;98304.36;213713;1277;141404;-67
2022/04/06 16:57:47;;;;;;;4.90;4.00;;;;;;;12.03;67.06;98302.72;213049;1279;140071;-68
2022/04/06 17:02:54;;;;;;;6.20;4.40;;;;;;;11.95;66.73;98301.02;213647;1277;143033;-69
2022/04/06 17:07:57;;;;;;;6.10;4.50;;;;;;;11.85;66.75;98299.02;214635;1277;139651;-69
2022/04/06 17:13:00;;;;;;;5.50;4.70;;;;;;;11.74;66.73;98303.27;214574;1277;139866;-66
2022/04/06 17:18:03;;;;;;;4.70;4.20;;;;;;;11.64;67.20;98295.32;214015;1277;141047;-69
2022/04/06 17:23:07;;;;;;;6.80;5.50;;;;;;;11.56;67.08;98291.33;215374;1277;140479;-68
2022/04/06 17:28:09;;;;;;;7.50;4.90;;;;;;;11.45;66.99;98291.42;214431;1277;140988;-67
2022/04/06 17:33:11;;;;;;;9.70;6.20;;;;;;;11.35;67.17;98290.63;213555;1277;140302;-68
2022/04/06 17:38:14;;;;;;;10.40;6.00;;;;;;;11.20;67.12;98286.65;215514;1277;144399;-69
2022/04/06 17:43:17;;;;;;;8.50;5.20;;;;;;;11.01;67.16;98288.13;215229;1279;140450;-65
2022/04/06 17:48:19;;;;;;;6.60;5.10;;;;;;;10.86;67.64;98287.59;214573;1281;151529;-69
2022/04/06 17:53:21;;;;;;;7.30;4.90;;;;;;;10.78;67.88;98288.45;214300;1279;140073;-67
2022/04/06 17:58:23;;;;;;;9.00;5.90;;;;;;;10.67;68.07;98291.20;213144;1278;141028;-67
2022/04/06 18:03:29;;;;;;;6.90;6.10;;;;;;;10.57;68.33;98291.65;213004;1277;141846;-67
2022/04/06 18:08:31;;;;;;;8.70;6.30;;;;;;;10.42;68.36;98289.92;213158;1277;140630;-68
2022/04/06 18:13:40;;;;;;;11.10;7.00;;;;;;;10.32;68.61;98287.97;213684;1277;140588;-67
2022/04/06 18:18:46;;;;;;;7.60;6.70;;;;;;;10.20;68.94;98283.64;213614;1277;140907;-66
2022/04/06 18:23:51;;;;;;;9.70;5.80;;;;;;;10.07;69.20;98286.61;213800;1277;139699;-68
2022/04/06 18:28:54;;;;;;;11.90;7.70;;;;;;;9.94;69.29;98283.58;213696;1277;139640;-68
2022/04/06 18:34:05;;;;;;;15.20;8.90;;;;;;;9.83;69.52;98279.46;213519;1277;140984;-66
2022/04/06 18:39:07;;;;;;;12.80;8.90;;;;;;;9.72;69.72;98276.59;213911;1279;140941;-68
2022/04/06 18:44:10;;;;;;;10.80;7.30;;;;;;;9.68;69.89;98272.97;213843;1277;140490;-67
2022/04/06 18:49:15;;;;;;;14.00;8.60;;;;;;;9.60;70.05;98265.45;213597;1279;140001;-67
2022/04/06 18:54:18;;;;;;;10.80;7.70;;;;;;;9.52;70.15;98267.17;214263;1277;139606;-68
2022/04/06 18:59:27;;;;;;;10.20;8.20;;;;;;;9.47;70.15;98263.02;213606;1277;140961;-66
2022/04/06 19:04:32;;;;;;;10.90;7.90;;;;;;;9.40;70.28;98259.83;214063;1277;142053;-66
2022/04/06 19:09:35;;;;;;;11.60;7.20;;;;;;;9.34;70.32;98260.13;214225;1277;142565;-69
2022/04/06 19:14:41;;;;;;;10.50;7.80;;;;;;;9.27;70.42;98262.08;213161;1277;140842;-66
2022/04/06 19:19:44;;;;;;;9.80;7.60;;;;;;;9.25;70.56;98263.29;214704;1277;141502;-66
2022/04/06 19:24:48;;;;;;;9.60;7.20;;;;;;;9.22;70.71;98260.41;214694;1277;141031;-68
2022/04/06 19:29:50;;;;;;;6.80;4.90;;;;;;;9.19;70.74;98261.69;213323;1279;140861;-66
2022/04/06 19:34:53;;;;;;;9.70;6.20;;;;;;;9.11;70.58;98259.27;215433;1277;143208;-69
2022/04/06 19:39:55;;;;;;;7.30;6.40;;;;;;;9.06;70.93;98259.46;214738;1277;141293;-66
2022/04/06 19:44:59;;;;;;;12.60;8.20;;;;;;;9.03;71.02;98259.02;215736;1277;142582;-70
2022/04/06 19:50:03;;;;;;;16.00;9.60;;;;;;;9.04;71.07;98255.89;215474;1277;140858;-69
2022/04/06 19:55:07;;;;;;;15.40;10.10;;;;;;;9.01;70.67;98251.30;215495;1277;140972;-74
2022/04/06 20:00:11;;;;;;;12.20;9.70;;;;;;;8.92;71.04;98246.80;215221;1277;141390;-68
2022/04/06 20:05:14;;;;;;;10.30;8.60;;;;;;;8.85;70.97;98239.94;215340;1277;140054;-70
2022/04/06 20:10:17;;;;;;;10.10;7.00;;;;;;;8.80;71.11;98235.89;213991;1279;139706;-68
2022/04/06 20:15:20;;;;;;;8.90;6.70;;;;;;;8.77;71.40;98230.02;214019;1279;140416;-67
2022/04/06 20:20:25;;;;;;;13.20;7.40;;;;;;;8.71;71.17;98230.63;213857;1277;140133;-71
2022/04/06 20:25:28;;;;;;;7.40;5.10;;;;;;;8.66;71.63;98226.56;212919;1279;140675;-69
2022/04/06 20:30:32;;;;;;;11.40;7.50;;;;;;;8.61;71.66;98224.14;213675;1277;139677;-66
2022/04/06 20:35:35;;;;;;;8.10;6.90;;;;;;;8.58;71.90;98223.02;213852;1277;142148;-66
2022/04/06 20:40:39;;;;;;;12.70;7.90;;;;;;;8.54;71.86;98222.38;213672;1277;140701;-65
2022/04/06 20:45:43;;;;;;;9.60;7.90;;;;;;;8.53;72.13;98220.73;212773;1277;140635;-64
2022/04/06 20:50:46;;;;;;;17.00;12.40;;;;;;;8.53;72.06;98213.35;214030;1277;139974;-67
2022/04/06 20:55:52;;;;;;;14.60;8.10;;;;;;;8.52;72.10;98208.81;212917;1277;140225;-66
2022/04/06 21:00:56;;;;;;;17.20;9.00;;;;;;;8.51;72.06;98206.69;212730;1277;142578;-68
2022/04/06 21:05:59;;;;;;;10.60;9.20;;;;;;;8.47;72.26;98202.63;213203;1277;140860;-68
2022/04/06 21:11:03;;;;;;;9.00;7.90;;;;;;;8.42;72.17;98193.84;213855;1277;140669;-67
2022/04/06 21:16:06;;;;;;;14.00;9.00;;;;;;;8.39;72.43;98197.43;214126;1277;140944;-68
2022/04/06 21:21:10;;;;;;;9.00;7.20;;;;;;;8.38;72.05;98200.35;213972;1277;140006;-68
2022/04/06 21:26:12;;;;;;;9.50;7.90;;;;;;;8.38;72.11;98194.34;213670;1277;140882;-66
2022/04/06 21:31:16;;;;;;;9.30;8.40;;;;;;;8.36;72.14;98194.39;212812;1278;140323;-67
2022/04/06 21:36:19;;;;;;;9.90;7.70;;;;;;;8.34;72.25;98188.64;215210;1277;139650;-67
2022/04/06 21:41:21;;;;;;;11.40;7.80;;;;;;;8.31;71.99;98182.39;214139;1277;140140;-66
2022/04/06 21:46:24;;;;;;;8.70;7.90;;;;;;;8.29;72.13;98174.02;214480;1277;140603;-71
2022/04/06 21:51:27;;;;;;;10.00;6.70;;;;;;;8.31;72.54;98172.45;215510;1277;140383;-72
2022/04/06 21:56:30;;;;;;;8.60;7.00;;;;;;;8.32;72.27;98163.66;215323;1277;140868;-71
2022/04/06 22:01:33;;;;;;;10.20;7.30;;;;;;;8.35;72.13;98156.84;215048;1277;140558;-69
2022/04/06 22:06:35;;;;;;;8.90;6.90;;;;;;;8.35;72.25;98153.48;213208;1277;139644;-69
2022/04/06 22:11:38;;;;;;;11.40;7.60;;;;;;;8.29;72.62;98152.48;215181;1277;140303;-70
2022/04/06 22:16:43;;;;;;;10.30;8.30;;;;;;;8.25;72.40;98139.03;214033;1277;756285;-69
2022/04/06 22:21:49;;;;;;;12.30;7.50;;;;;;;8.27;72.67;98121.93;214219;1277;139729;-67
2022/04/06 22:26:53;;;;;;;8.00;6.60;;;;;;;8.30;72.32;98112.92;214205;1277;140016;-68
2022/04/06 22:31:55;;;;;;;9.60;7.50;;;;;;;8.32;72.31;98113.63;213772;1277;141525;-69
2022/04/06 22:36:58;;;;;;;7.60;6.60;;;;;;;8.34;72.55;98113.40;213873;1277;139702;-68
2022/04/06 22:42:02;;;;;;;11.80;7.50;;;;;;;8.33;72.02;98108.86;213934;1277;141765;-67
2022/04/06 22:47:06;;;;;;;8.80;6.30;;;;;;;8.32;72.37;98104.19;214021;1277;140254;-68
2022/04/06 22:52:08;;;;;;;10.60;7.50;;;;;;;8.32;72.15;98095.04;213755;1277;140542;-67
2022/04/06 22:57:11;;;;;;;12.50;7.00;;;;;;;8.32;72.40;98097.02;213777;1277;140019;-68
2022/04/06 23:02:14;;;;;;;7.50;6.60;;;;;;;8.30;72.44;98085.79;213448;1277;140015;-67
2022/04/06 23:07:17;;;;;;;7.80;6.50;;;;;;;8.28;72.39;98086.63;213457;1277;140595;-67
2022/04/06 23:12:21;;;;;;;16.70;8.30;;;;;;;8.26;72.22;98079.45;213092;1276;140808;-68
2022/04/06 23:17:26;;;;;;;7.40;6.10;;;;;;;8.25;72.51;98074.11;213449;1279;140281;-69
2022/04/06 23:22:30;;;;;;;9.10;7.10;;;;;;;8.23;72.29;98071.40;213507;1279;139869;-67